createdAt,value
2022-09-27T00:02:08.143Z,97755.66
2022-09-27T00:04:35.640Z,97755.53
2022-09-27T00:07:03.051Z,97761.44
2022-09-27T00:09:30.473Z,97763.19
2022-09-27T00:11:57.845Z,97761.53
2022-09-27T00:14:25.346Z,97757.03
2022-09-27T00:16:54.210Z,97763.28
2022-09-27T00:19:23.720Z,97769.28
2022-09-27T00:21:51.425Z,97766.16
2022-09-27T00:24:20.945Z,97754.03
2022-09-27T00:26:48.994Z,97763.72
2022-09-27T00:29:18.009Z,97759.56
2022-09-27T00:31:45.725Z,97760.25
2022-09-27T00:34:20.290Z,97764.31
2022-09-27T00:36:48.547Z,97757.38
2022-09-27T00:39:16.311Z,97754.84
2022-09-27T00:41:44.485Z,97754.38
2022-09-27T00:44:49.561Z,97750.34
2022-09-27T00:47:22.061Z,97747.09
2022-09-27T00:49:54.656Z,97742.00
2022-09-27T00:52:24.589Z,97740.94
2022-09-27T00:54:55.220Z,97740.16
2022-09-27T00:57:23.536Z,97742.69
2022-09-27T00:59:53.530Z,97739.00
2022-09-27T01:02:22.321Z,97740.28
2022-09-27T01:04:52.045Z,97744.22
2022-09-27T01:07:19.893Z,97743.84
2022-09-27T01:09:47.514Z,97743.13
2022-09-27T01:12:23.877Z,97742.56
2022-09-27T01:15:03.587Z,97744.66
2022-09-27T01:17:41.068Z,97737.16
2022-09-27T01:20:21.313Z,97747.53
2022-09-27T01:22:59.777Z,97743.84
2022-09-27T01:25:44.478Z,97739.88
2022-09-27T01:28:20.941Z,97739.53
2022-09-27T01:30:51.813Z,97742.97
2022-09-27T01:33:26.841Z,97745.88
2022-09-27T01:36:05.806Z,97751.41
2022-09-27T01:38:42.505Z,97742.84
2022-09-27T01:41:17.153Z,97745.59
2022-09-27T01:44:15.027Z,97740.44
2022-09-27T01:46:51.677Z,97737.00
2022-09-27T01:49:30.293Z,97742.63
2022-09-27T01:52:00.645Z,97744.84
2022-09-27T01:54:38.605Z,97733.97
2022-09-27T01:57:23.472Z,97749.03
2022-09-27T01:59:54.460Z,97745.00
2022-09-27T02:02:45.849Z,97741.28
2022-09-27T02:05:33.476Z,97745.00
2022-09-27T02:08:13.818Z,97745.34
2022-09-27T02:10:46.143Z,97739.34
2022-09-27T02:13:21.793Z,97746.41
2022-09-27T02:15:57.760Z,97744.66
2022-09-27T02:18:47.751Z,97746.06
2022-09-27T02:21:16.337Z,97754.13
2022-09-27T02:23:47.315Z,97752.28
2022-09-27T02:26:17.445Z,97745.25
2022-09-27T02:28:49.922Z,97760.38
2022-09-27T02:31:25.273Z,97758.66
2022-09-27T02:34:01.978Z,97759.47
2022-09-27T02:36:30.078Z,97764.31
2022-09-27T02:38:57.746Z,97772.28
2022-09-27T02:41:25.115Z,97766.63
2022-09-27T02:43:55.912Z,97768.25
2022-09-27T02:46:43.011Z,97774.38
2022-09-27T02:49:20.404Z,97772.66
2022-09-27T02:52:09.302Z,97767.22
2022-09-27T02:54:42.251Z,97768.50
2022-09-27T02:57:36.398Z,97773.09
2022-09-27T03:00:18.353Z,97779.00
2022-09-27T03:03:00.735Z,97775.06
2022-09-27T03:05:42.758Z,97780.72
2022-09-27T03:08:10.625Z,97779.25
2022-09-27T03:10:37.975Z,97777.50
2022-09-27T03:13:05.822Z,97781.66
2022-09-27T03:15:33.441Z,97779.13
2022-09-27T03:18:00.994Z,97783.50
2022-09-27T03:21:04.770Z,97780.63
2022-09-27T03:23:32.537Z,97786.88
2022-09-27T03:25:59.977Z,97782.00
2022-09-27T03:28:29.589Z,97781.44
2022-09-27T03:30:57.037Z,97789.06
2022-09-27T03:33:48.045Z,97789.41
2022-09-27T03:36:17.069Z,97787.31
2022-09-27T03:38:44.406Z,97789.28
2022-09-27T03:41:16.691Z,97796.94
2022-09-27T03:43:44.184Z,97794.94
2022-09-27T03:46:12.037Z,97794.50
2022-09-27T03:48:39.572Z,97797.41
2022-09-27T03:51:07.242Z,97789.78
2022-09-27T03:53:36.718Z,97792.75
2022-09-27T03:56:04.665Z,97801.88
2022-09-27T03:58:32.366Z,97803.16
2022-09-27T04:01:00.094Z,97803.31
2022-09-27T04:03:28.194Z,97810.03
2022-09-27T04:06:27.016Z,97804.50
2022-09-27T04:08:56.152Z,97811.53
2022-09-27T04:11:30.824Z,97809.81
2022-09-27T04:13:59.021Z,97805.88
2022-09-27T04:16:27.413Z,97809.91
2022-09-27T04:19:13.694Z,97812.25
2022-09-27T04:21:46.985Z,97810.97
2022-09-27T04:24:16.260Z,97812.13
2022-09-27T04:26:54.956Z,97808.84
2022-09-27T04:29:25.998Z,97813.72
2022-09-27T04:31:55.320Z,97818.38
2022-09-27T04:35:03.320Z,97813.75
2022-09-27T04:37:30.841Z,97813.31
2022-09-27T04:40:04.525Z,97812.03
2022-09-27T04:42:33.944Z,97819.06
2022-09-27T04:45:01.976Z,97813.00
2022-09-27T04:47:29.345Z,97818.31
2022-09-27T04:49:57.593Z,97819.81
2022-09-27T04:52:25.361Z,97824.00
2022-09-27T04:54:52.784Z,97827.78
2022-09-27T04:57:22.145Z,97833.09
2022-09-27T04:59:51.521Z,97832.16
2022-09-27T05:02:19.171Z,97834.34
2022-09-27T05:05:10.953Z,97833.66
2022-09-27T05:07:41.775Z,97842.78
2022-09-27T05:10:14.566Z,97847.13
2022-09-27T05:12:43.469Z,97851.19
2022-09-27T05:15:14.769Z,97849.47
2022-09-27T05:18:00.880Z,97854.03
2022-09-27T05:20:47.125Z,97861.81
2022-09-27T05:23:21.221Z,97865.03
2022-09-27T05:25:48.957Z,97864.53
2022-09-27T05:28:17.649Z,97869.41
2022-09-27T05:30:45.644Z,97869.59
2022-09-27T05:33:18.951Z,97879.88
2022-09-27T05:35:53.493Z,97883.19
2022-09-27T05:38:23.717Z,97891.97
2022-09-27T05:40:53.508Z,97879.50
2022-09-27T05:43:22.225Z,97879.00
2022-09-27T05:45:52.729Z,97888.88
2022-09-27T05:48:21.999Z,97891.16
2022-09-27T05:51:03.025Z,97902.97
2022-09-27T05:53:32.439Z,97907.00
2022-09-27T05:56:02.736Z,97905.91
2022-09-27T05:58:39.651Z,97908.03
2022-09-27T06:01:14.381Z,97903.03
2022-09-27T06:04:02.251Z,97900.97
2022-09-27T06:06:53.985Z,97909.22
2022-09-27T06:09:21.464Z,97912.63
2022-09-27T06:11:49.429Z,97910.69
2022-09-27T06:14:19.440Z,97918.16
2022-09-27T06:17:07.170Z,97912.38
2022-09-27T06:19:36.962Z,97915.78
2022-09-27T06:22:04.759Z,97912.31
2022-09-27T06:24:41.634Z,97920.06
2022-09-27T06:27:16.072Z,97914.69
2022-09-27T06:29:52.024Z,97926.19
2022-09-27T06:32:33.023Z,97936.09
2022-09-27T06:35:15.911Z,97936.06
2022-09-27T06:37:43.277Z,97933.72
2022-09-27T06:40:11.122Z,97941.09
2022-09-27T06:42:59.967Z,97937.69
2022-09-27T06:45:48.978Z,97943.59
2022-09-27T06:48:32.186Z,97951.41
2022-09-27T06:51:11.344Z,97959.19
2022-09-27T06:53:38.828Z,97963.84
2022-09-27T06:56:06.585Z,97961.50
2022-09-27T06:59:02.619Z,97966.41
2022-09-27T07:01:57.825Z,97972.56
2022-09-27T07:04:43.769Z,97977.69
2022-09-27T07:07:39.738Z,97977.69
2022-09-27T07:10:09.974Z,97977.00
2022-09-27T07:12:38.024Z,97975.47
2022-09-27T07:15:06.764Z,97983.78
2022-09-27T07:17:36.148Z,97980.69
2022-09-27T07:20:03.757Z,97983.94
2022-09-27T07:22:31.702Z,97990.81
2022-09-27T07:25:02.831Z,97995.72
2022-09-27T07:27:32.989Z,98000.72
2022-09-27T07:30:00.913Z,98001.41
2022-09-27T07:32:28.999Z,98003.84
2022-09-27T07:34:57.709Z,98002.78
2022-09-27T07:37:26.132Z,98008.72
2022-09-27T07:39:54.074Z,98014.16
2022-09-27T07:42:21.535Z,98009.16
2022-09-27T07:44:52.107Z,98012.88
2022-09-27T07:47:29.267Z,98013.50
2022-09-27T07:50:10.705Z,98016.41
2022-09-27T07:52:57.309Z,98015.50
2022-09-27T07:55:33.813Z,98022.66
2022-09-27T07:58:18.003Z,98022.84
2022-09-27T08:00:45.598Z,98035.25
2022-09-27T08:03:15.943Z,98026.41
2022-09-27T08:05:45.445Z,98025.09
2022-09-27T08:08:12.832Z,98029.75
2022-09-27T08:10:44.034Z,98035.78
2022-09-27T08:13:12.827Z,98041.53
2022-09-27T08:15:41.098Z,98041.78
2022-09-27T08:18:10.297Z,98041.47
2022-09-27T08:20:58.616Z,98047.78
2022-09-27T08:23:29.445Z,98049.56
2022-09-27T08:26:15.233Z,98051.88
2022-09-27T08:29:00.869Z,98055.41
2022-09-27T08:31:31.261Z,98062.81
2022-09-27T08:33:58.881Z,98059.41
2022-09-27T08:36:28.687Z,98059.72
2022-09-27T08:38:59.005Z,98054.28
2022-09-27T08:41:36.189Z,98061.56
2022-09-27T08:44:10.297Z,98063.91
2022-09-27T08:46:53.811Z,98063.09
2022-09-27T08:49:26.307Z,98055.78
2022-09-27T08:51:55.830Z,98064.94
2022-09-27T08:54:25.719Z,98062.19
2022-09-27T08:56:54.021Z,98063.56
2022-09-27T08:59:25.221Z,98058.31
2022-09-27T09:01:53.861Z,98074.19
2022-09-27T09:04:34.455Z,98068.13
2022-09-27T09:07:10.465Z,98076.53
2022-09-27T09:09:45.749Z,98070.25
2022-09-27T09:12:49.874Z,98070.75
2022-09-27T09:15:26.866Z,98076.56
2022-09-27T09:18:11.934Z,98079.97
2022-09-27T09:20:58.308Z,98070.03
2022-09-27T09:23:43.066Z,98080.59
2022-09-27T09:26:14.850Z,98075.50
2022-09-27T09:28:52.598Z,98080.50
2022-09-27T09:31:26.091Z,98073.69
2022-09-27T09:33:56.222Z,98068.84
2022-09-27T09:36:28.773Z,98075.78
2022-09-27T09:39:00.653Z,98075.06
2022-09-27T09:41:30.087Z,98063.94
2022-09-27T09:43:59.509Z,98071.75
2022-09-27T09:46:31.269Z,98063.44
2022-09-27T09:49:07.350Z,98068.66
2022-09-27T09:51:39.385Z,98072.84
2022-09-27T09:54:16.216Z,98058.69
2022-09-27T09:56:47.530Z,98065.25
2022-09-27T09:59:17.250Z,98065.81
2022-09-27T10:01:47.909Z,98059.09
2022-09-27T10:04:19.863Z,98052.06
2022-09-27T10:06:47.567Z,98055.75
2022-09-27T10:09:17.469Z,98057.34
2022-09-27T10:12:04.874Z,98055.38
2022-09-27T10:14:33.465Z,98048.44
2022-09-27T10:17:10.035Z,98047.56
2022-09-27T10:19:39.402Z,98052.38
2022-09-27T10:22:14.693Z,98055.69
2022-09-27T10:24:56.502Z,98058.94
2022-09-27T10:27:48.021Z,98052.72
2022-09-27T10:30:29.277Z,98046.44
2022-09-27T10:32:59.674Z,98041.03
2022-09-27T10:35:41.697Z,98051.72
2022-09-27T10:38:26.409Z,98056.50
2022-09-27T10:41:23.173Z,98073.25
2022-09-27T10:43:51.501Z,98081.75
2022-09-27T10:46:32.173Z,98085.50
2022-09-27T10:49:20.059Z,98085.19
2022-09-27T10:51:51.789Z,98090.59
2022-09-27T10:54:24.955Z,98089.31
2022-09-27T10:56:58.730Z,98094.88
2022-09-27T10:59:26.806Z,98091.88
2022-09-27T11:01:54.279Z,98086.25
2022-09-27T11:04:32.232Z,98086.75
2022-09-27T11:07:14.955Z,98083.84
2022-09-27T11:09:48.422Z,98080.03
2022-09-27T11:12:20.661Z,98080.97
2022-09-27T11:14:55.201Z,98082.66
2022-09-27T11:17:27.453Z,98084.75
2022-09-27T11:20:14.860Z,98083.22
2022-09-27T11:23:00.516Z,98075.28
2022-09-27T11:25:38.352Z,98073.28
2022-09-27T11:28:14.403Z,98072.19
2022-09-27T11:30:48.512Z,98078.44
2022-09-27T11:33:45.966Z,98076.81
2022-09-27T11:36:17.981Z,98082.66
2022-09-27T11:39:01.754Z,98087.72
2022-09-27T11:41:41.056Z,98077.38
2022-09-27T11:44:40.706Z,98072.56
2022-09-27T11:47:17.229Z,98065.13
2022-09-27T11:50:30.528Z,98068.16
2022-09-27T11:53:08.937Z,98063.09
2022-09-27T11:55:44.261Z,98059.81
2022-09-27T11:58:18.766Z,98061.34
2022-09-27T12:01:01.622Z,98064.44
2022-09-27T12:03:53.253Z,98062.97
2022-09-27T12:06:26.508Z,98053.41
2022-09-27T12:09:03.458Z,98063.31
2022-09-27T12:11:37.422Z,98058.88
2022-09-27T12:14:07.964Z,98065.03
2022-09-27T12:16:38.001Z,98058.78
2022-09-27T12:19:10.291Z,98066.66
2022-09-27T12:21:52.763Z,98066.66
2022-09-27T12:24:22.386Z,98071.75
2022-09-27T12:27:17.505Z,98076.88
2022-09-27T12:29:47.214Z,98065.88
2022-09-27T12:32:18.788Z,98070.72
2022-09-27T12:34:50.021Z,98082.91
2022-09-27T12:37:20.717Z,98081.41
2022-09-27T12:39:51.765Z,98071.31
2022-09-27T12:42:33.573Z,98072.09
2022-09-27T12:45:11.977Z,98076.63
2022-09-27T12:47:57.479Z,98071.66
2022-09-27T12:50:30.943Z,98068.88
2022-09-27T12:53:05.195Z,98085.00
2022-09-27T12:55:57.188Z,98073.38
2022-09-27T12:58:38.450Z,98073.63
2022-09-27T13:01:14.011Z,98064.44
2022-09-27T13:03:56.353Z,98070.94
2022-09-27T13:06:33.617Z,98090.44
2022-09-27T13:09:34.854Z,98087.06
2022-09-27T13:12:05.404Z,98099.59
2022-09-27T13:14:36.969Z,98089.59
2022-09-27T13:17:04.379Z,98089.19
2022-09-27T13:19:42.674Z,98084.25
2022-09-27T13:22:38.397Z,98078.69
2022-09-27T13:25:52.910Z,98071.06
2022-09-27T13:28:36.516Z,98080.88
2022-09-27T13:31:15.198Z,98078.22
2022-09-27T13:33:47.113Z,98074.13
2022-09-27T13:36:32.806Z,98072.41
2022-09-27T13:39:22.635Z,98077.81
2022-09-27T13:42:32.294Z,98075.25
2022-09-27T13:45:20.007Z,98061.25
2022-09-27T13:47:48.873Z,98072.91
2022-09-27T13:50:26.476Z,98075.69
2022-09-27T13:53:08.018Z,98071.41
2022-09-27T13:55:42.799Z,98067.41
2022-09-27T13:58:30.183Z,98076.38
2022-09-27T14:01:00.248Z,98072.81
2022-09-27T14:03:30.150Z,98070.50
2022-09-27T14:06:05.424Z,98073.69
2022-09-27T14:08:41.106Z,98079.50
2022-09-27T14:11:13.664Z,98079.03
2022-09-27T14:13:41.881Z,98075.41
2022-09-27T14:16:15.510Z,98085.81
2022-09-27T14:18:46.049Z,98076.81
2022-09-27T14:21:19.793Z,98081.00
2022-09-27T14:24:21.642Z,98081.47
2022-09-27T14:26:49.220Z,98080.22
2022-09-27T14:29:17.884Z,98074.91
2022-09-27T14:31:45.423Z,98077.59
2022-09-27T14:34:19.890Z,98069.47
2022-09-27T14:37:07.147Z,98076.50
2022-09-27T14:39:46.457Z,98084.63
2022-09-27T14:42:32.809Z,98091.84
2022-09-27T14:45:02.756Z,98086.22
2022-09-27T14:47:30.202Z,98084.16
2022-09-27T14:49:59.909Z,98087.41
2022-09-27T14:52:31.219Z,98090.66
2022-09-27T14:55:02.691Z,98089.78
2022-09-27T14:57:32.744Z,98089.53
2022-09-27T15:00:03.794Z,98093.38
2022-09-27T15:02:34.197Z,98102.97
2022-09-27T15:05:01.568Z,98098.59
2022-09-27T15:07:29.030Z,98102.44
2022-09-27T15:09:56.997Z,98107.19
2022-09-27T15:12:27.137Z,98101.06
2022-09-27T15:14:56.445Z,98101.06
2022-09-27T15:17:25.117Z,98105.59
2022-09-27T15:20:00.497Z,98117.44
2022-09-27T15:22:35.158Z,98123.44
2022-09-27T15:25:17.218Z,98126.72
2022-09-27T15:27:52.840Z,98130.75
2022-09-27T15:30:29.514Z,98133.22
2022-09-27T15:32:57.490Z,98134.53
2022-09-27T15:35:28.053Z,98134.31
2022-09-27T15:38:13.474Z,98131.81
2022-09-27T15:40:59.488Z,98133.44
2022-09-27T15:43:30.944Z,98128.09
2022-09-27T15:46:01.851Z,98134.50
2022-09-27T15:48:29.875Z,98130.53
2022-09-27T15:50:57.277Z,98135.94
2022-09-27T15:53:42.382Z,98135.25
2022-09-27T15:56:13.854Z,98138.66
2022-09-27T15:58:43.302Z,98131.22
2022-09-27T16:01:18.868Z,98143.09
2022-09-27T16:03:46.464Z,98144.13
2022-09-27T16:06:14.573Z,98150.19
2022-09-27T16:08:42.097Z,98144.19
2022-09-27T16:11:12.189Z,98144.56
2022-09-27T16:13:39.513Z,98151.16
2022-09-27T16:16:13.636Z,98147.75
2022-09-27T16:18:40.963Z,98151.34
2022-09-27T16:21:09.121Z,98149.72
2022-09-27T16:23:36.558Z,98151.03
2022-09-27T16:26:05.158Z,98152.88
2022-09-27T16:28:32.813Z,98151.34
2022-09-27T16:31:05.025Z,98146.84
2022-09-27T16:33:34.453Z,98153.00
2022-09-27T16:36:06.829Z,98153.28
2022-09-27T16:38:34.184Z,98144.72
2022-09-27T16:41:02.829Z,98148.16
2022-09-27T16:43:31.129Z,98147.41
2022-09-27T16:46:05.726Z,98144.69
2022-09-27T16:48:34.389Z,98155.00
2022-09-27T16:51:23.010Z,98150.38
2022-09-27T16:53:50.407Z,98148.50
2022-09-27T16:56:19.130Z,98146.59
2022-09-27T16:58:46.754Z,98142.13
2022-09-27T17:01:16.821Z,98144.31
2022-09-27T17:03:49.625Z,98135.56
2022-09-27T17:06:17.196Z,98147.34
2022-09-27T17:08:44.866Z,98144.28
2022-09-27T17:11:14.547Z,98141.50
2022-09-27T17:13:42.344Z,98145.84
2022-09-27T17:16:10.849Z,98141.31
2022-09-27T17:18:38.703Z,98142.81
2022-09-27T17:21:08.973Z,98145.09
2022-09-27T17:23:36.868Z,98140.31
2022-09-27T17:26:06.169Z,98141.75
2022-09-27T17:28:33.744Z,98142.50
2022-09-27T17:31:08.484Z,98132.94
2022-09-27T17:33:43.289Z,98150.09
2022-09-27T17:36:13.649Z,98140.16
2022-09-27T17:38:42.274Z,98144.41
2022-09-27T17:41:11.932Z,98151.25
2022-09-27T17:43:46.413Z,98145.97
2022-09-27T17:46:13.816Z,98154.31
2022-09-27T17:48:58.667Z,98144.50
2022-09-27T17:51:27.401Z,98151.50
2022-09-27T17:53:54.745Z,98157.66
2022-09-27T17:56:22.801Z,98155.88
2022-09-27T17:58:51.586Z,98151.69
2022-09-27T18:01:21.164Z,98153.41
2022-09-27T18:03:48.675Z,98152.19
2022-09-27T18:06:17.104Z,98153.16
2022-09-27T18:08:45.809Z,98152.91
2022-09-27T18:11:15.936Z,98151.97
2022-09-27T18:13:44.258Z,98153.41
2022-09-27T18:16:13.382Z,98153.09
2022-09-27T18:18:42.333Z,98155.06
2022-09-27T18:21:11.721Z,98156.16
2022-09-27T18:23:39.869Z,98155.16
2022-09-27T18:26:08.885Z,98156.41
2022-09-27T18:28:37.501Z,98159.13
2022-09-27T18:31:06.500Z,98145.09
2022-09-27T18:33:34.462Z,98153.66
2022-09-27T18:36:06.203Z,98154.50
2022-09-27T18:38:34.351Z,98149.19
2022-09-27T18:41:11.020Z,98156.13
2022-09-27T18:43:39.074Z,98153.06
2022-09-27T18:46:34.105Z,98153.94
2022-09-27T18:48:56.592Z,98152.09
2022-09-27T18:51:26.695Z,98151.50
2022-09-27T18:53:55.781Z,98143.91
2022-09-27T18:56:24.832Z,98147.00
2022-09-27T18:58:52.473Z,98141.75
2022-09-27T19:01:21.394Z,98152.75
2022-09-27T19:03:49.277Z,98150.53
2022-09-27T19:06:18.516Z,98146.28
2022-09-27T19:08:46.065Z,98140.75
2022-09-27T19:11:15.125Z,98141.13
2022-09-27T19:13:51.142Z,98138.09
2022-09-27T19:16:20.733Z,98141.56
2022-09-27T19:18:48.454Z,98146.22
2022-09-27T19:21:17.497Z,98147.81
2022-09-27T19:23:45.872Z,98148.47
2022-09-27T19:26:15.837Z,98149.50
2022-09-27T19:28:45.589Z,98142.13
2022-09-27T19:31:14.308Z,98152.56
2022-09-27T19:33:42.029Z,98148.69
2022-09-27T19:36:10.850Z,98154.59
2022-09-27T19:38:39.046Z,98154.34
2022-09-27T19:41:07.771Z,98155.53
2022-09-27T19:43:35.301Z,98157.00
2022-09-27T19:46:09.026Z,98149.28
2022-09-27T19:48:37.226Z,98147.63
2022-09-27T19:51:05.158Z,98154.16
2022-09-27T19:53:33.086Z,98146.47
2022-09-27T19:56:00.597Z,98148.47
2022-09-27T19:58:28.902Z,98157.84
2022-09-27T20:01:01.204Z,98151.94
2022-09-27T20:03:30.502Z,98145.59
2022-09-27T20:05:59.048Z,98147.81
2022-09-27T20:08:26.782Z,98147.22
2022-09-27T20:10:55.453Z,98149.47
2022-09-27T20:13:23.813Z,98151.53
2022-09-27T20:15:51.316Z,98142.09
2022-09-27T20:18:18.721Z,98139.47
2022-09-27T20:20:47.506Z,98140.28
2022-09-27T20:23:19.773Z,98139.84
2022-09-27T20:25:48.394Z,98143.53
2022-09-27T20:28:15.741Z,98141.09
2022-09-27T20:30:43.245Z,98142.69
2022-09-27T20:33:28.249Z,98132.91
2022-09-27T20:35:56.916Z,98137.03
2022-09-27T20:38:24.258Z,98136.03
2022-09-27T20:40:54.978Z,98131.31
2022-09-27T20:43:22.481Z,98134.97
2022-09-27T20:45:49.849Z,98130.34
2022-09-27T20:48:17.955Z,98122.63
2022-09-27T20:50:45.348Z,98116.91
2022-09-27T20:53:14.036Z,98127.09
2022-09-27T20:55:41.527Z,98121.00
2022-09-27T20:58:08.878Z,98121.41
2022-09-27T21:00:36.393Z,98121.41
2022-09-27T21:03:04.013Z,98114.69
2022-09-27T21:05:31.339Z,98124.03
2022-09-27T21:07:58.701Z,98131.78
2022-09-27T21:10:27.345Z,98126.09
2022-09-27T21:12:54.734Z,98122.84
2022-09-27T21:15:22.101Z,98126.09
2022-09-27T21:17:50.173Z,98123.84
2022-09-27T21:20:17.602Z,98123.66
2022-09-27T21:22:44.981Z,98124.88
2022-09-27T21:25:12.366Z,98117.13
2022-09-27T21:27:41.041Z,98119.19
2022-09-27T21:30:09.562Z,98116.91
2022-09-27T21:32:38.089Z,98116.72
2022-09-27T21:35:06.296Z,98110.59
2022-09-27T21:37:34.039Z,98106.31
2022-09-27T21:40:03.702Z,98113.88
2022-09-27T21:42:31.098Z,98111.22
2022-09-27T21:45:00.901Z,98113.66
2022-09-27T21:47:28.269Z,98104.31
2022-09-27T21:49:55.589Z,98104.50
2022-09-27T21:52:22.939Z,98102.44
2022-09-27T21:54:50.264Z,98098.53
2022-09-27T21:57:17.622Z,98102.63
2022-09-27T21:59:44.993Z,98098.53
2022-09-27T22:02:13.779Z,98100.19
2022-09-27T22:04:41.201Z,98088.56
2022-09-27T22:07:08.529Z,98086.16
2022-09-27T22:09:35.931Z,98095.72
2022-09-27T22:12:03.300Z,98095.53
2022-09-27T22:14:30.645Z,98088.41
2022-09-27T22:16:57.981Z,98090.44
2022-09-27T22:19:26.658Z,98084.09
2022-09-27T22:21:54.050Z,98089.19
2022-09-27T22:24:21.444Z,98091.44
2022-09-27T22:26:50.204Z,98087.34
2022-09-27T22:29:17.903Z,98091.63
2022-09-27T22:31:45.511Z,98093.66
2022-09-27T22:34:18.157Z,98084.84
2022-09-27T22:36:46.893Z,98083.41
2022-09-27T22:39:14.304Z,98081.81
2022-09-27T22:41:41.749Z,98082.38
2022-09-27T22:44:09.054Z,98077.50
2022-09-27T22:46:36.550Z,98072.03
2022-09-27T22:49:03.944Z,98073.34
2022-09-27T22:51:31.280Z,98065.41
2022-09-27T22:54:00.033Z,98061.59
2022-09-27T22:56:27.556Z,98065.56
2022-09-27T22:58:54.877Z,98058.28
2022-09-27T23:01:23.647Z,98055.84
2022-09-27T23:03:52.197Z,98053.34
2022-09-27T23:06:21.586Z,98051.75
2022-09-27T23:08:49.414Z,98053.13
2022-09-27T23:11:19.805Z,98046.97
2022-09-27T23:13:47.947Z,98042.88
2022-09-27T23:16:16.896Z,98041.63
2022-09-27T23:18:46.286Z,98037.16
2022-09-27T23:21:15.049Z,98035.53
2022-09-27T23:23:44.672Z,98033.88
2022-09-27T23:26:13.521Z,98036.94
2022-09-27T23:28:42.272Z,98034.97
2022-09-27T23:31:13.483Z,98030.66
2022-09-27T23:33:42.841Z,98028.91
2022-09-27T23:36:11.537Z,98034.84
2022-09-27T23:38:40.234Z,98031.75
2022-09-27T23:41:08.502Z,98028.66
2022-09-27T23:43:36.370Z,98020.53
2022-09-27T23:46:06.759Z,98019.66
2022-09-27T23:48:34.716Z,98021.13
2022-09-27T23:51:02.554Z,98014.16
2022-09-27T23:53:29.956Z,98014.56
2022-09-27T23:56:02.449Z,98018.81
2022-09-27T23:58:30.665Z,98012.50
